sensor_id;sensor_type;location;lat;lon;timestamp;temperature;humidity
18317;DHT22;9284;52.298;21.164;2023-03-04T00:00:20;0.40;1.00
18317;DHT22;9284;52.298;21.164;2023-03-04T00:02:48;0.40;1.00
18317;DHT22;9284;52.298;21.164;2023-03-04T04:09:11;1.10;1.00
18317;DHT22;9284;52.298;21.164;2023-03-04T04:11:40;1.20;1.00
18317;DHT22;9284;52.298;21.164;2023-03-04T04:14:10;1.20;1.00
18317;DHT22;9284;52.298;21.164;2023-03-04T04:16:38;1.10;99.90
18317;DHT22;9284;52.298;21.164;2023-03-04T04:19:08;1.30;99.90
18317;DHT22;9284;52.298;21.164;2023-03-04T04:21:37;1.20;99.90
18317;DHT22;9284;52.298;21.164;2023-03-04T04:24:05;1.20;99.90
18317;DHT22;9284;52.298;21.164;2023-03-04T04:26:35;1.20;99.90
18317;DHT22;9284;52.298;21.164;2023-03-04T04:29:07;1.40;99.90
18317;DHT22;9284;52.298;21.164;2023-03-04T04:31:36;1.30;99.90
18317;DHT22;9284;52.298;21.164;2023-03-04T04:34:05;1.40;7.50
18317;DHT22;9284;52.298;21.164;2023-03-04T04:36:33;1.40;98.90
18317;DHT22;9284;52.298;21.164;2023-03-04T04:39:02;1.50;99.90
18317;DHT22;9284;52.298;21.164;2023-03-04T04:41:37;1.30;99.90
18317;DHT22;9284;52.298;21.164;2023-03-04T04:44:06;1.40;99.90
18317;DHT22;9284;52.298;21.164;2023-03-04T04:46:38;1.30;99.90
18317;DHT22;9284;52.298;21.164;2023-03-04T04:49:07;1.30;99.90
18317;DHT22;9284;52.298;21.164;2023-03-04T04:51:36;1.40;99.90
18317;DHT22;9284;52.298;21.164;2023-03-04T04:54:08;1.30;27.80
18317;DHT22;9284;52.298;21.164;2023-03-04T04:56:40;1.40;1.00
18317;DHT22;9284;52.298;21.164;2023-03-04T04:59:09;1.30;1.00
18317;DHT22;9284;52.298;21.164;2023-03-04T05:01:37;1.30;1.00
18317;DHT22;9284;52.298;21.164;2023-03-04T05:04:05;1.30;1.00
18317;DHT22;9284;52.298;21.164;2023-03-04T05:06:33;1.40;1.00
18317;DHT22;9284;52.298;21.164;2023-03-04T05:09:05;1.50;99.90
18317;DHT22;9284;52.298;21.164;2023-03-04T05:11:37;1.40;99.90
18317;DHT22;9284;52.298;21.164;2023-03-04T05:14:06;1.50;99.90
18317;DHT22;9284;52.298;21.164;2023-03-04T05:16:37;1.50;99.90
18317;DHT22;9284;52.298;21.164;2023-03-04T05:19:06;1.50;99.90
18317;DHT22;9284;52.298;21.164;2023-03-04T05:21:37;1.60;1.80
18317;DHT22;9284;52.298;21.164;2023-03-04T05:24:05;1.50;1.00
18317;DHT22;9284;52.298;21.164;2023-03-04T05:26:38;1.50;1.00
18317;DHT22;9284;52.298;21.164;2023-03-04T05:29:07;1.50;1.00
18317;DHT22;9284;52.298;21.164;2023-03-04T05:31:37;1.60;1.00
18317;DHT22;9284;52.298;21.164;2023-03-04T05:34:05;1.60;1.00
18317;DHT22;9284;52.298;21.164;2023-03-04T05:36:34;1.60;1.00
18317;DHT22;9284;52.298;21.164;2023-03-04T05:39:02;1.60;1.00
18317;DHT22;9284;52.298;21.164;2023-03-04T05:41:33;1.60;1.00
18317;DHT22;9284;52.298;21.164;2023-03-04T05:44:04;1.60;1.00
18317;DHT22;9284;52.298;21.164;2023-03-04T05:46:33;1.60;1.00
18317;DHT22;9284;52.298;21.164;2023-03-04T05:49:04;1.70;1.00
18317;DHT22;9284;52.298;21.164;2023-03-04T05:51:33;1.60;1.00
18317;DHT22;9284;52.298;21.164;2023-03-04T05:54:01;1.70;1.00
18317;DHT22;9284;52.298;21.164;2023-03-04T05:56:31;1.70;1.00
18317;DHT22;9284;52.298;21.164;2023-03-04T05:59:04;1.70;1.00
18317;DHT22;9284;52.298;21.164;2023-03-04T06:01:35;1.80;1.00
18317;DHT22;9284;52.298;21.164;2023-03-04T06:04:03;1.70;1.00
18317;DHT22;9284;52.298;21.164;2023-03-04T06:06:32;1.70;1.00
18317;DHT22;9284;52.298;21.164;2023-03-04T06:09:00;1.80;99.90
18317;DHT22;9284;52.298;21.164;2023-03-04T06:11:29;1.80;99.90
18317;DHT22;9284;52.298;21.164;2023-03-04T06:13:57;1.80;99.90
18317;DHT22;9284;52.298;21.164;2023-03-04T06:16:28;1.80;99.90
18317;DHT22;9284;52.298;21.164;2023-03-04T06:18:57;1.70;99.90
18317;DHT22;9284;52.298;21.164;2023-03-04T06:21:28;1.80;99.90
18317;DHT22;9284;52.298;21.164;2023-03-04T06:23:58;1.70;99.90
18317;DHT22;9284;52.298;21.164;2023-03-04T06:26:29;2.00;99.90
18317;DHT22;9284;52.298;21.164;2023-03-04T06:28:58;1.80;99.90
18317;DHT22;9284;52.298;21.164;2023-03-04T06:31:28;1.90;99.90
18317;DHT22;9284;52.298;21.164;2023-03-04T06:33:59;2.00;99.90
18317;DHT22;9284;52.298;21.164;2023-03-04T06:36:27;1.90;99.90
18317;DHT22;9284;52.298;21.164;2023-03-04T06:38:56;1.80;99.90
18317;DHT22;9284;52.298;21.164;2023-03-04T06:41:24;1.90;99.90
18317;DHT22;9284;52.298;21.164;2023-03-04T06:43:53;2.00;99.90
18317;DHT22;9284;52.298;21.164;2023-03-04T06:46:23;1.90;1.00
18317;DHT22;9284;52.298;21.164;2023-03-04T06:48:53;1.90;1.00
18317;DHT22;9284;52.298;21.164;2023-03-04T06:51:21;1.90;1.00
18317;DHT22;9284;52.298;21.164;2023-03-04T06:53:50;1.90;1.00
18317;DHT22;9284;52.298;21.164;2023-03-04T06:56:21;1.90;1.00
18317;DHT22;9284;52.298;21.164;2023-03-04T06:58:49;2.00;1.00
18317;DHT22;9284;52.298;21.164;2023-03-04T07:01:20;1.90;1.00
18317;DHT22;9284;52.298;21.164;2023-03-04T07:03:49;1.90;1.00
18317;DHT22;9284;52.298;21.164;2023-03-04T07:06:22;2.00;1.00
18317;DHT22;9284;52.298;21.164;2023-03-04T07:08:51;2.00;1.00
18317;DHT22;9284;52.298;21.164;2023-03-04T07:11:23;2.00;1.00
18317;DHT22;9284;52.298;21.164;2023-03-04T07:13:57;2.00;1.00
18317;DHT22;9284;52.298;21.164;2023-03-04T07:16:31;2.00;1.00
18317;DHT22;9284;52.298;21.164;2023-03-04T07:19:03;2.00;1.00
18317;DHT22;9284;52.298;21.164;2023-03-04T07:21:39;2.00;1.00
18317;DHT22;9284;52.298;21.164;2023-03-04T07:24:11;2.10;1.00
18317;DHT22;9284;52.298;21.164;2023-03-04T07:26:39;2.00;1.00
18317;DHT22;9284;52.298;21.164;2023-03-04T07:29:08;2.00;1.00
18317;DHT22;9284;52.298;21.164;2023-03-04T07:31:36;2.10;1.00
18317;DHT22;9284;52.298;21.164;2023-03-04T07:34:06;2.10;1.00
18317;DHT22;9284;52.298;21.164;2023-03-04T07:36:35;2.20;1.00
18317;DHT22;9284;52.298;21.164;2023-03-04T07:39:05;2.10;99.90
18317;DHT22;9284;52.298;21.164;2023-03-04T07:41:34;2.10;1.00
18317;DHT22;9284;52.298;21.164;2023-03-04T07:44:06;2.10;1.00
18317;DHT22;9284;52.298;21.164;2023-03-04T07:46:38;2.10;1.00
18317;DHT22;9284;52.298;21.164;2023-03-04T07:49:07;2.10;1.00
18317;DHT22;9284;52.298;21.164;2023-03-04T07:51:35;2.20;1.00
18317;DHT22;9284;52.298;21.164;2023-03-04T07:54:06;2.30;1.00
18317;DHT22;9284;52.298;21.164;2023-03-04T07:56:38;2.10;99.90
18317;DHT22;9284;52.298;21.164;2023-03-04T07:59:06;2.20;99.90
18317;DHT22;9284;52.298;21.164;2023-03-04T08:01:37;2.20;99.90
18317;DHT22;9284;52.298;21.164;2023-03-04T08:04:08;2.30;99.90
18317;DHT22;9284;52.298;21.164;2023-03-04T08:06:40;2.30;75.00
18317;DHT22;9284;52.298;21.164;2023-03-04T08:09:12;2.30;1.00
18317;DHT22;9284;52.298;21.164;2023-03-04T08:11:41;2.40;1.00
18317;DHT22;9284;52.298;21.164;2023-03-04T08:14:10;2.20;1.00
18317;DHT22;9284;52.298;21.164;2023-03-04T08:16:40;2.30;1.00
18317;DHT22;9284;52.298;21.164;2023-03-04T08:19:10;2.30;1.00
18317;DHT22;9284;52.298;21.164;2023-03-04T08:21:39;2.30;1.00
18317;DHT22;9284;52.298;21.164;2023-03-04T08:24:11;2.30;1.00
18317;DHT22;9284;52.298;21.164;2023-03-04T08:26:41;2.40;1.00
18317;DHT22;9284;52.298;21.164;2023-03-04T08:29:12;2.40;1.00
18317;DHT22;9284;52.298;21.164;2023-03-04T08:31:40;2.40;99.90
18317;DHT22;9284;52.298;21.164;2023-03-04T08:34:08;2.50;99.90
18317;DHT22;9284;52.298;21.164;2023-03-04T08:36:39;2.40;99.90
18317;DHT22;9284;52.298;21.164;2023-03-04T08:39:11;2.40;99.90
18317;DHT22;9284;52.298;21.164;2023-03-04T08:41:40;2.40;99.90
18317;DHT22;9284;52.298;21.164;2023-03-04T08:44:09;2.40;99.90
18317;DHT22;9284;52.298;21.164;2023-03-04T08:46:39;2.40;99.90
18317;DHT22;9284;52.298;21.164;2023-03-04T08:49:09;2.40;99.90
18317;DHT22;9284;52.298;21.164;2023-03-04T08:51:38;2.50;99.90
18317;DHT22;9284;52.298;21.164;2023-03-04T08:54:06;2.50;1.00
18317;DHT22;9284;52.298;21.164;2023-03-04T08:56:43;2.50;1.00
18317;DHT22;9284;52.298;21.164;2023-03-04T08:59:18;2.60;1.00
18317;DHT22;9284;52.298;21.164;2023-03-04T09:01:47;2.70;1.00
18317;DHT22;9284;52.298;21.164;2023-03-04T09:04:16;2.70;99.90
18317;DHT22;9284;52.298;21.164;2023-03-04T09:06:44;2.70;99.90
18317;DHT22;9284;52.298;21.164;2023-03-04T09:09:16;2.80;99.90
18317;DHT22;9284;52.298;21.164;2023-03-04T09:11:45;2.90;99.90
18317;DHT22;9284;52.298;21.164;2023-03-04T09:14:14;2.90;99.90
18317;DHT22;9284;52.298;21.164;2023-03-04T09:16:42;3.00;1.00
18317;DHT22;9284;52.298;21.164;2023-03-04T09:19:10;3.10;1.00
18317;DHT22;9284;52.298;21.164;2023-03-04T09:21:38;2.90;16.30
18317;DHT22;9284;52.298;21.164;2023-03-04T09:24:07;2.80;95.90
18317;DHT22;9284;52.298;21.164;2023-03-04T09:26:35;2.80;99.90
18317;DHT22;9284;52.298;21.164;2023-03-04T09:29:05;2.70;99.90
18317;DHT22;9284;52.298;21.164;2023-03-04T09:31:33;2.80;99.90
18317;DHT22;9284;52.298;21.164;2023-03-04T09:34:01;2.80;99.90
18317;DHT22;9284;52.298;21.164;2023-03-04T09:36:30;2.80;99.90
18317;DHT22;9284;52.298;21.164;2023-03-04T09:38:58;2.70;1.00
18317;DHT22;9284;52.298;21.164;2023-03-04T09:41:35;2.70;1.00
18317;DHT22;9284;52.298;21.164;2023-03-04T09:44:14;2.70;1.00
18317;DHT22;9284;52.298;21.164;2023-03-04T09:46:44;2.80;1.00
18317;DHT22;9284;52.298;21.164;2023-03-04T09:49:15;2.70;1.00
18317;DHT22;9284;52.298;21.164;2023-03-04T09:51:51;2.70;1.00
18317;DHT22;9284;52.298;21.164;2023-03-04T09:54:38;2.70;1.00
18317;DHT22;9284;52.298;21.164;2023-03-04T09:57:20;2.60;1.00
18317;DHT22;9284;52.298;21.164;2023-03-04T10:00:02;2.60;27.10
18317;DHT22;9284;52.298;21.164;2023-03-04T10:02:44;2.60;99.90
18317;DHT22;9284;52.298;21.164;2023-03-04T10:05:17;2.60;99.90
18317;DHT22;9284;52.298;21.164;2023-03-04T10:07:52;2.60;99.90
18317;DHT22;9284;52.298;21.164;2023-03-04T10:10:25;2.70;99.90
18317;DHT22;9284;52.298;21.164;2023-03-04T10:12:57;2.70;99.90
18317;DHT22;9284;52.298;21.164;2023-03-04T10:15:32;2.70;99.90
18317;DHT22;9284;52.298;21.164;2023-03-04T10:18:10;2.70;99.90
18317;DHT22;9284;52.298;21.164;2023-03-04T10:20:53;2.80;99.90
18317;DHT22;9284;52.298;21.164;2023-03-04T10:23:30;2.90;99.90
18317;DHT22;9284;52.298;21.164;2023-03-04T10:26:08;2.80;99.90
18317;DHT22;9284;52.298;21.164;2023-03-04T10:28:49;2.90;99.90
18317;DHT22;9284;52.298;21.164;2023-03-04T10:31:33;2.90;1.00
18317;DHT22;9284;52.298;21.164;2023-03-04T10:34:08;2.90;99.90
18317;DHT22;9284;52.298;21.164;2023-03-04T10:36:46;2.90;1.00
18317;DHT22;9284;52.298;21.164;2023-03-04T10:39:20;2.80;1.00
18317;DHT22;9284;52.298;21.164;2023-03-04T10:41:59;2.70;1.00
18317;DHT22;9284;52.298;21.164;2023-03-04T10:44:28;2.60;1.00
18317;DHT22;9284;52.298;21.164;2023-03-04T10:46:58;2.60;99.90
18317;DHT22;9284;52.298;21.164;2023-03-04T10:49:28;2.60;99.90
18317;DHT22;9284;52.298;21.164;2023-03-04T10:52:02;2.60;1.00
18317;DHT22;9284;52.298;21.164;2023-03-04T10:54:34;2.60;99.90
18317;DHT22;9284;52.298;21.164;2023-03-04T10:57:14;2.50;1.00
18317;DHT22;9284;52.298;21.164;2023-03-04T10:59:45;2.40;1.00
18317;DHT22;9284;52.298;21.164;2023-03-04T11:02:20;2.40;1.00
18317;DHT22;9284;52.298;21.164;2023-03-04T11:04:51;2.40;99.90
18317;DHT22;9284;52.298;21.164;2023-03-04T11:07:21;2.40;99.90
18317;DHT22;9284;52.298;21.164;2023-03-04T11:09:49;2.40;99.90
18317;DHT22;9284;52.298;21.164;2023-03-04T11:12:20;2.40;99.90
18317;DHT22;9284;52.298;21.164;2023-03-04T11:14:49;2.40;99.90
18317;DHT22;9284;52.298;21.164;2023-03-04T11:17:46;2.40;1.00
18317;DHT22;9284;52.298;21.164;2023-03-04T11:20:24;2.40;1.00
18317;DHT22;9284;52.298;21.164;2023-03-04T11:22:55;2.40;1.00
18317;DHT22;9284;52.298;21.164;2023-03-04T11:25:26;2.40;1.00
18317;DHT22;9284;52.298;21.164;2023-03-04T11:27:58;2.40;1.00
18317;DHT22;9284;52.298;21.164;2023-03-04T11:30:33;2.40;57.90
18317;DHT22;9284;52.298;21.164;2023-03-04T11:33:27;2.40;99.90
18317;DHT22;9284;52.298;21.164;2023-03-04T11:36:09;2.40;99.90
18317;DHT22;9284;52.298;21.164;2023-03-04T11:38:45;2.40;78.60
18317;DHT22;9284;52.298;21.164;2023-03-04T11:41:20;2.30;99.90
18317;DHT22;9284;52.298;21.164;2023-03-04T11:43:50;2.20;99.90
18317;DHT22;9284;52.298;21.164;2023-03-04T11:46:43;2.20;1.00
18317;DHT22;9284;52.298;21.164;2023-03-04T11:52:18;2.00;1.00
18317;DHT22;9284;52.298;21.164;2023-03-04T11:55:12;1.90;99.90
18317;DHT22;9284;52.298;21.164;2023-03-04T11:57:51;1.80;99.90
18317;DHT22;9284;52.298;21.164;2023-03-04T12:00:32;1.60;99.90
18317;DHT22;9284;52.298;21.164;2023-03-04T12:03:19;1.60;1.00
18317;DHT22;9284;52.298;21.164;2023-03-04T12:05:57;1.60;1.00
18317;DHT22;9284;52.298;21.164;2023-03-04T12:08:37;1.70;1.00
18317;DHT22;9284;52.298;21.164;2023-03-04T12:11:13;1.70;1.00
18317;DHT22;9284;52.298;21.164;2023-03-04T12:14:14;1.70;1.00
18317;DHT22;9284;52.298;21.164;2023-03-04T12:19:58;1.70;1.00
18317;DHT22;9284;52.298;21.164;2023-03-04T12:22:40;1.70;1.00
18317;DHT22;9284;52.298;21.164;2023-03-04T12:25:31;1.80;19.80
18317;DHT22;9284;52.298;21.164;2023-03-04T12:28:13;1.80;43.70
18317;DHT22;9284;52.298;21.164;2023-03-04T12:31:05;1.80;53.50
18317;DHT22;9284;52.298;21.164;2023-03-04T12:33:45;1.90;76.90
18317;DHT22;9284;52.298;21.164;2023-03-04T12:36:24;2.10;99.90
18317;DHT22;9284;52.298;21.164;2023-03-04T12:39:12;2.30;99.90
18317;DHT22;9284;52.298;21.164;2023-03-04T12:41:53;2.50;99.90
18317;DHT22;9284;52.298;21.164;2023-03-04T12:44:23;2.60;99.90
18317;DHT22;9284;52.298;21.164;2023-03-04T12:50:15;2.80;99.90
18317;DHT22;9284;52.298;21.164;2023-03-04T12:52:52;3.00;99.90
18317;DHT22;9284;52.298;21.164;2023-03-04T12:55:31;3.10;99.90
18317;DHT22;9284;52.298;21.164;2023-03-04T12:58:05;3.10;91.20
18317;DHT22;9284;52.298;21.164;2023-03-04T13:00:43;3.10;7.10
18317;DHT22;9284;52.298;21.164;2023-03-04T13:03:20;3.10;1.00
18317;DHT22;9284;52.298;21.164;2023-03-04T13:06:02;3.20;1.00
18317;DHT22;9284;52.298;21.164;2023-03-04T13:08:43;3.30;1.00
18317;DHT22;9284;52.298;21.164;2023-03-04T13:11:43;3.30;1.00
18317;DHT22;9284;52.298;21.164;2023-03-04T13:14:29;3.20;1.00
18317;DHT22;9284;52.298;21.164;2023-03-04T13:20:20;3.10;1.00
18317;DHT22;9284;52.298;21.164;2023-03-04T13:22:55;3.10;1.00
18317;DHT22;9284;52.298;21.164;2023-03-04T13:25:37;3.10;1.00
18317;DHT22;9284;52.298;21.164;2023-03-04T13:28:35;3.10;99.90
18317;DHT22;9284;52.298;21.164;2023-03-04T13:31:17;3.00;99.90
18317;DHT22;9284;52.298;21.164;2023-03-04T13:33:59;3.00;99.90
18317;DHT22;9284;52.298;21.164;2023-03-04T13:39:30;2.30;1.00
18317;DHT22;9284;52.298;21.164;2023-03-04T13:44:59;1.60;37.70
18317;DHT22;9284;52.298;21.164;2023-03-04T13:50:24;1.30;1.00
18317;DHT22;9284;52.298;21.164;2023-03-04T13:52:59;1.20;1.00
18317;DHT22;9284;52.298;21.164;2023-03-04T13:55:35;1.30;1.00
18317;DHT22;9284;52.298;21.164;2023-03-04T13:58:19;1.20;1.00
18317;DHT22;9284;52.298;21.164;2023-03-04T14:00:53;1.30;1.00
18317;DHT22;9284;52.298;21.164;2023-03-04T14:03:24;1.30;1.00
18317;DHT22;9284;52.298;21.164;2023-03-04T14:06:09;1.40;1.00
18317;DHT22;9284;52.298;21.164;2023-03-04T14:08:38;1.60;1.00
18317;DHT22;9284;52.298;21.164;2023-03-04T14:11:12;1.70;1.00
18317;DHT22;9284;52.298;21.164;2023-03-04T14:13:41;1.70;1.00
18317;DHT22;9284;52.298;21.164;2023-03-04T14:16:11;1.70;1.00
18317;DHT22;9284;52.298;21.164;2023-03-04T14:18:39;1.80;1.00
18317;DHT22;9284;52.298;21.164;2023-03-04T14:21:13;1.80;99.90
18317;DHT22;9284;52.298;21.164;2023-03-04T14:23:45;1.80;1.00
18317;DHT22;9284;52.298;21.164;2023-03-04T14:26:16;1.80;99.90
18317;DHT22;9284;52.298;21.164;2023-03-04T14:28:46;1.90;99.90
18317;DHT22;9284;52.298;21.164;2023-03-04T14:31:18;2.00;1.00
18317;DHT22;9284;52.298;21.164;2023-03-04T14:33:49;2.00;53.80
18317;DHT22;9284;52.298;21.164;2023-03-04T14:36:19;2.10;47.60
18317;DHT22;9284;52.298;21.164;2023-03-04T14:38:52;2.10;1.00
18317;DHT22;9284;52.298;21.164;2023-03-04T14:41:24;2.10;1.00
18317;DHT22;9284;52.298;21.164;2023-03-04T14:43:59;2.20;1.00
18317;DHT22;9284;52.298;21.164;2023-03-04T14:46:35;2.10;1.00
18317;DHT22;9284;52.298;21.164;2023-03-04T14:49:09;2.10;1.00
18317;DHT22;9284;52.298;21.164;2023-03-04T14:51:41;2.10;99.90
18317;DHT22;9284;52.298;21.164;2023-03-04T14:54:29;2.20;1.00
18317;DHT22;9284;52.298;21.164;2023-03-04T14:56:59;2.10;1.00
18317;DHT22;9284;52.298;21.164;2023-03-04T14:59:30;2.10;99.90
18317;DHT22;9284;52.298;21.164;2023-03-04T15:02:16;1.90;1.00
18317;DHT22;9284;52.298;21.164;2023-03-04T15:04:46;1.80;99.90
18317;DHT22;9284;52.298;21.164;2023-03-04T15:07:17;1.80;99.90
18317;DHT22;9284;52.298;21.164;2023-03-04T15:09:50;1.90;1.00
18317;DHT22;9284;52.298;21.164;2023-03-04T15:12:25;1.70;1.00
18317;DHT22;9284;52.298;21.164;2023-03-04T15:14:55;1.70;99.90
18317;DHT22;9284;52.298;21.164;2023-03-04T15:17:29;1.60;99.90
18317;DHT22;9284;52.298;21.164;2023-03-04T15:20:00;1.60;99.90
18317;DHT22;9284;52.298;21.164;2023-03-04T15:22:29;1.70;1.00
18317;DHT22;9284;52.298;21.164;2023-03-04T15:24:57;1.60;1.00
18317;DHT22;9284;52.298;21.164;2023-03-04T15:27:27;1.60;99.90
18317;DHT22;9284;52.298;21.164;2023-03-04T15:29:57;1.50;99.90
18317;DHT22;9284;52.298;21.164;2023-03-04T15:32:29;1.30;1.00
18317;DHT22;9284;52.298;21.164;2023-03-04T15:34:58;1.10;99.90
18317;DHT22;9284;52.298;21.164;2023-03-04T15:37:28;1.00;99.90
18317;DHT22;9284;52.298;21.164;2023-03-04T15:39:57;0.90;81.80
18317;DHT22;9284;52.298;21.164;2023-03-04T15:42:25;0.90;1.00
18317;DHT22;9284;52.298;21.164;2023-03-04T15:44:54;0.90;1.00
18317;DHT22;9284;52.298;21.164;2023-03-04T15:47:23;0.90;1.00
18317;DHT22;9284;52.298;21.164;2023-03-04T15:49:53;0.70;1.00
18317;DHT22;9284;52.298;21.164;2023-03-04T15:52:21;0.90;1.00
18317;DHT22;9284;52.298;21.164;2023-03-04T15:54:51;0.90;1.00
18317;DHT22;9284;52.298;21.164;2023-03-04T15:57:22;1.00;1.00
18317;DHT22;9284;52.298;21.164;2023-03-04T15:59:51;1.10;1.00
18317;DHT22;9284;52.298;21.164;2023-03-04T16:02:22;1.20;1.00
18317;DHT22;9284;52.298;21.164;2023-03-04T16:04:50;1.20;1.00
18317;DHT22;9284;52.298;21.164;2023-03-04T16:07:23;1.20;1.00
18317;DHT22;9284;52.298;21.164;2023-03-04T16:09:55;1.20;99.90
18317;DHT22;9284;52.298;21.164;2023-03-04T16:12:25;1.10;99.90
18317;DHT22;9284;52.298;21.164;2023-03-04T16:14:54;1.20;99.90
18317;DHT22;9284;52.298;21.164;2023-03-04T16:17:22;1.20;99.90
18317;DHT22;9284;52.298;21.164;2023-03-04T16:19:51;1.20;99.90
18317;DHT22;9284;52.298;21.164;2023-03-04T16:22:22;1.10;99.90
18317;DHT22;9284;52.298;21.164;2023-03-04T16:24:52;1.10;99.90
18317;DHT22;9284;52.298;21.164;2023-03-04T16:27:21;1.10;99.90
18317;DHT22;9284;52.298;21.164;2023-03-04T16:29:52;0.90;99.90
18317;DHT22;9284;52.298;21.164;2023-03-04T16:32:20;0.90;99.90
18317;DHT22;9284;52.298;21.164;2023-03-04T16:34:50;0.90;99.90
18317;DHT22;9284;52.298;21.164;2023-03-04T16:37:20;0.90;99.90
18317;DHT22;9284;52.298;21.164;2023-03-04T16:39:49;0.80;99.90
18317;DHT22;9284;52.298;21.164;2023-03-04T16:42:18;0.80;99.90
18317;DHT22;9284;52.298;21.164;2023-03-04T16:44:48;0.70;99.90
18317;DHT22;9284;52.298;21.164;2023-03-04T16:47:17;0.70;99.90
18317;DHT22;9284;52.298;21.164;2023-03-04T16:49:46;0.60;99.90
18317;DHT22;9284;52.298;21.164;2023-03-04T16:52:24;0.60;99.90
18317;DHT22;9284;52.298;21.164;2023-03-04T16:54:52;0.60;99.90
18317;DHT22;9284;52.298;21.164;2023-03-04T16:57:21;0.60;99.90
18317;DHT22;9284;52.298;21.164;2023-03-04T16:59:49;0.50;99.90
18317;DHT22;9284;52.298;21.164;2023-03-04T17:02:20;0.60;99.90
18317;DHT22;9284;52.298;21.164;2023-03-04T17:04:49;0.50;99.90
18317;DHT22;9284;52.298;21.164;2023-03-04T17:07:18;0.50;99.90
18317;DHT22;9284;52.298;21.164;2023-03-04T17:09:48;0.40;99.90
18317;DHT22;9284;52.298;21.164;2023-03-04T17:12:16;0.50;99.90
18317;DHT22;9284;52.298;21.164;2023-03-04T17:14:45;0.40;99.90
18317;DHT22;9284;52.298;21.164;2023-03-04T17:17:17;0.40;99.90
18317;DHT22;9284;52.298;21.164;2023-03-04T17:19:45;0.40;99.90
18317;DHT22;9284;52.298;21.164;2023-03-04T17:22:14;0.40;99.90
18317;DHT22;9284;52.298;21.164;2023-03-04T17:24:42;0.40;99.90
18317;DHT22;9284;52.298;21.164;2023-03-04T17:27:12;0.30;99.90
18317;DHT22;9284;52.298;21.164;2023-03-04T17:29:40;0.30;99.90
18317;DHT22;9284;52.298;21.164;2023-03-04T17:32:09;0.30;99.90
18317;DHT22;9284;52.298;21.164;2023-03-04T17:34:37;0.20;99.90
18317;DHT22;9284;52.298;21.164;2023-03-04T17:37:05;0.10;99.90
18317;DHT22;9284;52.298;21.164;2023-03-04T17:39:34;0.10;99.90
18317;DHT22;9284;52.298;21.164;2023-03-04T17:42:03;0.00;99.90
18317;DHT22;9284;52.298;21.164;2023-03-04T17:44:33;0.00;99.90
18317;DHT22;9284;52.298;21.164;2023-03-04T17:47:01;-0.10;99.90
18317;DHT22;9284;52.298;21.164;2023-03-04T17:49:30;-0.10;99.90
18317;DHT22;9284;52.298;21.164;2023-03-04T17:52:01;-0.20;99.90
18317;DHT22;9284;52.298;21.164;2023-03-04T17:54:30;-0.20;99.90
18317;DHT22;9284;52.298;21.164;2023-03-04T17:56:58;-0.30;99.90
18317;DHT22;9284;52.298;21.164;2023-03-04T17:59:26;-0.30;99.90
18317;DHT22;9284;52.298;21.164;2023-03-04T18:01:56;-0.40;99.90
18317;DHT22;9284;52.298;21.164;2023-03-04T18:04:25;-0.40;99.90
18317;DHT22;9284;52.298;21.164;2023-03-04T18:06:53;-0.40;99.90
18317;DHT22;9284;52.298;21.164;2023-03-04T18:09:22;-0.40;99.90
18317;DHT22;9284;52.298;21.164;2023-03-04T18:11:50;-0.40;99.90
18317;DHT22;9284;52.298;21.164;2023-03-04T18:14:18;-0.40;99.90
18317;DHT22;9284;52.298;21.164;2023-03-04T18:16:47;-0.40;99.90
18317;DHT22;9284;52.298;21.164;2023-03-04T18:19:17;-0.50;99.90
18317;DHT22;9284;52.298;21.164;2023-03-04T18:21:45;-0.50;99.90
18317;DHT22;9284;52.298;21.164;2023-03-04T18:24:13;-0.50;99.90
18317;DHT22;9284;52.298;21.164;2023-03-04T18:26:42;-0.60;99.90
18317;DHT22;9284;52.298;21.164;2023-03-04T18:29:10;-0.60;99.90
18317;DHT22;9284;52.298;21.164;2023-03-04T18:31:38;-0.70;99.90
18317;DHT22;9284;52.298;21.164;2023-03-04T18:34:07;-0.70;99.90
18317;DHT22;9284;52.298;21.164;2023-03-04T18:36:36;-0.70;99.90
18317;DHT22;9284;52.298;21.164;2023-03-04T18:39:05;-0.80;99.90
18317;DHT22;9284;52.298;21.164;2023-03-04T18:41:41;-0.90;99.90
18317;DHT22;9284;52.298;21.164;2023-03-04T18:44:11;-1.00;99.90
18317;DHT22;9284;52.298;21.164;2023-03-04T18:46:57;-1.00;99.90
18317;DHT22;9284;52.298;21.164;2023-03-04T18:49:26;-0.80;99.90
18317;DHT22;9284;52.298;21.164;2023-03-04T18:51:58;-0.90;99.90
18317;DHT22;9284;52.298;21.164;2023-03-04T18:54:26;-1.10;99.90
18317;DHT22;9284;52.298;21.164;2023-03-04T18:56:57;-1.10;99.90
18317;DHT22;9284;52.298;21.164;2023-03-04T18:59:31;-1.20;99.90
18317;DHT22;9284;52.298;21.164;2023-03-04T19:02:06;-1.20;99.90
18317;DHT22;9284;52.298;21.164;2023-03-04T19:04:37;-1.40;99.90
18317;DHT22;9284;52.298;21.164;2023-03-04T19:07:07;-1.50;99.90
18317;DHT22;9284;52.298;21.164;2023-03-04T19:09:35;-1.70;99.90
18317;DHT22;9284;52.298;21.164;2023-03-04T19:12:04;-1.70;99.90
18317;DHT22;9284;52.298;21.164;2023-03-04T19:14:32;-1.60;99.90
18317;DHT22;9284;52.298;21.164;2023-03-04T19:17:01;-1.60;99.90
18317;DHT22;9284;52.298;21.164;2023-03-04T19:19:29;-1.70;99.90
18317;DHT22;9284;52.298;21.164;2023-03-04T19:21:57;-1.80;99.90
18317;DHT22;9284;52.298;21.164;2023-03-04T19:24:27;-1.80;99.90
18317;DHT22;9284;52.298;21.164;2023-03-04T19:26:55;-1.80;99.90
18317;DHT22;9284;52.298;21.164;2023-03-04T19:29:23;-2.00;99.90
18317;DHT22;9284;52.298;21.164;2023-03-04T19:31:52;-2.10;99.90
18317;DHT22;9284;52.298;21.164;2023-03-04T19:34:20;-2.00;99.90
18317;DHT22;9284;52.298;21.164;2023-03-04T19:36:48;-2.10;99.90
18317;DHT22;9284;52.298;21.164;2023-03-04T19:39:17;-2.10;99.90
18317;DHT22;9284;52.298;21.164;2023-03-04T19:41:46;-2.10;99.90
18317;DHT22;9284;52.298;21.164;2023-03-04T19:44:16;-2.10;99.90
18317;DHT22;9284;52.298;21.164;2023-03-04T19:46:44;-2.10;99.90
18317;DHT22;9284;52.298;21.164;2023-03-04T19:49:12;-2.10;99.90
18317;DHT22;9284;52.298;21.164;2023-03-04T19:51:41;-2.20;99.90
18317;DHT22;9284;52.298;21.164;2023-03-04T19:54:09;-2.10;99.90
18317;DHT22;9284;52.298;21.164;2023-03-04T19:56:37;-2.10;99.90
18317;DHT22;9284;52.298;21.164;2023-03-04T19:59:07;-2.20;99.90
18317;DHT22;9284;52.298;21.164;2023-03-04T20:01:36;-2.20;99.90
18317;DHT22;9284;52.298;21.164;2023-03-04T20:04:07;-2.30;99.90
18317;DHT22;9284;52.298;21.164;2023-03-04T20:06:37;-2.20;99.90
18317;DHT22;9284;52.298;21.164;2023-03-04T20:09:06;-2.40;99.90
18317;DHT22;9284;52.298;21.164;2023-03-04T20:11:34;-2.40;99.90
18317;DHT22;9284;52.298;21.164;2023-03-04T20:14:18;-2.40;99.90
18317;DHT22;9284;52.298;21.164;2023-03-04T20:16:46;-2.50;99.90
18317;DHT22;9284;52.298;21.164;2023-03-04T20:19:14;-2.50;99.90
18317;DHT22;9284;52.298;21.164;2023-03-04T20:21:43;-2.60;99.90
18317;DHT22;9284;52.298;21.164;2023-03-04T20:24:11;-2.60;99.90
18317;DHT22;9284;52.298;21.164;2023-03-04T20:26:41;-2.50;99.90
18317;DHT22;9284;52.298;21.164;2023-03-04T20:29:09;-2.60;99.90
18317;DHT22;9284;52.298;21.164;2023-03-04T20:31:39;-2.50;99.90
18317;DHT22;9284;52.298;21.164;2023-03-04T20:34:07;-2.60;99.90
18317;DHT22;9284;52.298;21.164;2023-03-04T20:36:36;-2.60;99.90
18317;DHT22;9284;52.298;21.164;2023-03-04T20:39:05;-2.60;99.90
18317;DHT22;9284;52.298;21.164;2023-03-04T20:41:53;-2.50;99.90
18317;DHT22;9284;52.298;21.164;2023-03-04T20:44:22;-2.60;99.90